Time;durP1;ratioP1;P1;durP2;ratioP2;P2;SDS_P1;SDS_P2;PMS_P1;PMS_P2;Temp;Humidity;BMP_temperature;BMP_pressure;BME280_temperature;BME280_humidity;BME280_pressure;Samples;Min_cycle;Max_cycle;Signal;HPM_P1;HPM_P2
2024/01/02 00:01:13;;;;;;;6.47;2.03;;;7.30;99.90;;;;;;4897281;29;20568;-73
2024/01/02 00:03:39;;;;;;;11.63;2.37;;;7.20;99.90;;;;;;4889082;29;20289;-72
2024/01/02 00:06:05;;;;;;;6.10;1.93;;;7.20;99.90;;;;;;4889167;29;20294;-73
2024/01/02 00:08:30;;;;;;;11.67;2.60;;;7.20;99.90;;;;;;4891117;29;20231;-73
2024/01/02 00:10:56;;;;;;;5.23;1.83;;;7.20;99.90;;;;;;4890998;29;20207;-73
2024/01/02 00:13:21;;;;;;;7.60;2.63;;;7.30;99.90;;;;;;4883064;29;20184;-73
2024/01/02 00:15:47;;;;;;;3.20;1.80;;;7.30;99.90;;;;;;4894656;29;20266;-72
2024/01/02 00:18:12;;;;;;;3.70;1.60;;;7.30;99.90;;;;;;4893089;29;20567;-73
2024/01/02 00:20:38;;;;;;;5.37;1.50;;;7.30;99.90;;;;;;4891981;29;20600;-73
2024/01/02 00:23:03;;;;;;;3.93;1.60;;;7.30;99.90;;;;;;4890204;29;20451;-73
2024/01/02 00:25:29;;;;;;;3.90;1.50;;;7.30;99.90;;;;;;4896205;29;20312;-73
2024/01/02 00:27:54;;;;;;;6.60;1.90;;;7.30;99.90;;;;;;4887958;29;20279;-73
2024/01/02 00:30:20;;;;;;;5.43;1.50;;;7.30;99.90;;;;;;4892838;29;20188;-72
2024/01/02 00:32:47;;;;;;;5.17;1.43;;;7.30;99.90;;;;;;4893206;29;20432;-73
2024/01/02 00:35:13;;;;;;;6.20;1.77;;;7.30;99.90;;;;;;4893264;29;20603;-75
2024/01/02 00:37:38;;;;;;;4.60;1.63;;;7.20;99.90;;;;;;4896941;29;20440;-74
2024/01/02 00:40:05;;;;;;;10.73;2.37;;;7.20;99.90;;;;;;4889455;29;20211;-73
2024/01/02 00:42:30;;;;;;;3.70;1.70;;;7.20;99.90;;;;;;4896265;29;20199;-74
2024/01/02 00:44:59;;;;;;;4.17;1.50;;;7.10;99.90;;;;;;4895348;29;20411;-73
2024/01/02 00:47:24;;;;;;;7.27;1.53;;;7.10;99.90;;;;;;4897390;29;20503;-74
2024/01/02 00:49:50;;;;;;;4.47;1.77;;;7.10;99.90;;;;;;4889388;29;20444;-74
2024/01/02 00:52:15;;;;;;;6.97;1.40;;;7.10;99.90;;;;;;4877125;29;20180;-73
2024/01/02 00:54:41;;;;;;;4.47;1.90;;;7.00;99.90;;;;;;4891862;29;20222;-74
2024/01/02 00:57:07;;;;;;;5.10;1.00;;;7.00;99.90;;;;;;4900547;29;20187;-74
2024/01/02 00:59:32;;;;;;;3.60;1.40;;;7.00;99.90;;;;;;4891091;29;20192;-73
2024/01/02 01:01:58;;;;;;;2.03;1.00;;;7.00;99.90;;;;;;4891204;29;20488;-74
2024/01/02 01:04:24;;;;;;;2.80;0.97;;;7.00;99.90;;;;;;4898053;29;20610;-74
2024/01/02 01:06:51;;;;;;;2.27;0.90;;;7.00;99.90;;;;;;4875456;29;20451;-73
2024/01/02 01:09:18;;;;;;;2.90;1.20;;;7.00;99.90;;;;;;4898794;29;20486;-74
2024/01/02 01:11:43;;;;;;;7.03;1.60;;;6.90;99.90;;;;;;4892251;29;20424;-73
2024/01/02 01:14:09;;;;;;;3.77;1.70;;;6.90;99.90;;;;;;4901692;29;20970;-74
2024/01/02 01:16:35;;;;;;;2.47;1.30;;;6.90;99.90;;;;;;4894854;29;20207;-74
2024/01/02 01:19:00;;;;;;;1.83;1.13;;;6.90;99.90;;;;;;4892131;29;20220;-77
2024/01/02 01:21:26;;;;;;;5.07;1.47;;;6.90;99.90;;;;;;4890021;29;20187;-74
2024/01/02 01:23:51;;;;;;;4.10;1.37;;;6.90;99.90;;;;;;4896864;29;20218;-73
2024/01/02 01:26:17;;;;;;;2.90;1.60;;;6.90;99.90;;;;;;4900977;29;20532;-74
2024/01/02 01:28:44;;;;;;;4.73;1.37;;;6.90;99.90;;;;;;4898194;29;20207;-73
2024/01/02 01:31:09;;;;;;;3.77;1.23;;;6.90;99.90;;;;;;4893632;29;20198;-75
2024/01/02 01:33:35;;;;;;;2.90;1.60;;;6.90;99.90;;;;;;4896650;29;20419;-75
2024/01/02 01:36:00;;;;;;;3.47;1.40;;;6.90;99.90;;;;;;4895923;29;20210;-74
2024/01/02 01:38:27;;;;;;;1.73;1.33;;;6.90;99.90;;;;;;4914206;29;20198;-75
2024/01/02 01:40:53;;;;;;;1.93;1.37;;;6.90;99.90;;;;;;4903525;29;20282;-73
2024/01/02 01:43:18;;;;;;;5.57;1.17;;;6.90;99.90;;;;;;4893220;29;20521;-74
2024/01/02 01:45:44;;;;;;;1.53;1.10;;;6.90;99.90;;;;;;4897669;29;20216;-73
2024/01/02 01:48:10;;;;;;;3.43;1.27;;;6.90;99.90;;;;;;4894579;29;20258;-73
2024/01/02 01:50:36;;;;;;;1.40;1.23;;;6.90;99.90;;;;;;4878319;29;20226;-74
2024/01/02 01:53:03;;;;;;;1.43;1.20;;;6.90;99.90;;;;;;4894916;29;20446;-73
2024/01/02 01:55:29;;;;;;;1.50;1.00;;;6.90;99.90;;;;;;4897361;29;20467;-74
2024/01/02 01:57:55;;;;;;;2.47;1.10;;;6.90;99.90;;;;;;4885332;29;20706;-74
2024/01/02 02:00:21;;;;;;;1.70;1.30;;;6.90;99.90;;;;;;4899359;29;20447;-73
2024/01/02 02:02:47;;;;;;;2.27;1.40;;;6.90;99.90;;;;;;4902831;29;20432;-73
2024/01/02 02:05:16;;;;;;;1.83;1.40;;;6.90;99.90;;;;;;4904372;29;20596;-74
2024/01/02 02:07:43;;;;;;;2.00;1.57;;;6.80;99.90;;;;;;4884846;29;20490;-75
2024/01/02 02:10:09;;;;;;;1.60;1.30;;;6.80;99.90;;;;;;4902357;29;20479;-73
2024/01/02 02:12:36;;;;;;;2.40;1.30;;;6.80;99.90;;;;;;4897398;29;20423;-74
2024/01/02 02:15:03;;;;;;;1.40;0.97;;;6.80;99.90;;;;;;4900055;29;20472;-74
2024/01/02 02:17:30;;;;;;;1.20;0.90;;;6.80;99.90;;;;;;4880015;29;20421;-74
2024/01/02 02:19:56;;;;;;;2.80;1.00;;;6.80;99.90;;;;;;4894727;29;20807;-73
2024/01/02 02:22:34;;;;;;;1.90;1.43;;;6.80;99.90;;;;;;4892371;29;20424;-74
2024/01/02 02:25:02;;;;;;;1.10;0.90;;;6.80;99.90;;;;;;4892853;29;20958;-74
2024/01/02 02:27:29;;;;;;;1.67;0.93;;;6.80;99.90;;;;;;4886358;29;20415;-74
2024/01/02 02:29:55;;;;;;;1.40;1.10;;;6.80;99.90;;;;;;4895044;29;20447;-73
2024/01/02 02:32:22;;;;;;;1.63;1.27;;;6.80;99.90;;;;;;4901410;29;20756;-74
2024/01/02 02:34:48;;;;;;;1.60;1.13;;;6.80;99.90;;;;;;4883132;29;20179;-75
2024/01/02 02:37:13;;;;;;;1.33;1.00;;;6.80;99.90;;;;;;4889572;29;20431;-74
2024/01/02 02:39:39;;;;;;;1.10;0.90;;;6.70;99.90;;;;;;4891599;29;20302;-74
2024/01/02 02:42:05;;;;;;;1.30;0.90;;;6.70;99.90;;;;;;4891644;29;20190;-74
2024/01/02 02:44:31;;;;;;;1.10;0.90;;;6.70;99.90;;;;;;4897400;29;20180;-74
2024/01/02 02:46:57;;;;;;;1.23;0.87;;;6.60;99.90;;;;;;4893308;29;20466;-75
2024/01/02 02:49:24;;;;;;;1.63;1.03;;;6.60;99.90;;;;;;4893892;29;20326;-74
2024/01/02 02:51:49;;;;;;;1.73;1.13;;;6.60;99.90;;;;;;4869932;29;20519;-74
2024/01/02 02:54:15;;;;;;;1.73;1.00;;;6.60;99.90;;;;;;4898047;29;20459;-74
2024/01/02 02:56:43;;;;;;;2.17;1.20;;;6.60;99.90;;;;;;4889187;29;20200;-74
2024/01/02 02:59:12;;;;;;;1.53;1.10;;;6.50;99.90;;;;;;4903995;29;20239;-75
2024/01/02 03:01:40;;;;;;;1.37;1.03;;;6.50;99.90;;;;;;4902115;29;20432;-74
2024/01/02 03:04:05;;;;;;;1.07;0.80;;;6.50;99.90;;;;;;4885564;29;20415;-73
2024/01/02 03:06:31;;;;;;;1.03;0.90;;;6.50;99.90;;;;;;4910354;29;20456;-74
2024/01/02 03:08:57;;;;;;;1.57;0.90;;;6.50;99.90;;;;;;4896342;29;20265;-75
2024/01/02 03:11:23;;;;;;;0.90;0.63;;;6.50;99.90;;;;;;4899665;29;20266;-72
2024/01/02 03:13:48;;;;;;;1.03;0.70;;;6.50;99.90;;;;;;4905998;29;20777;-73
2024/01/02 03:16:18;;;;;;;1.00;0.70;;;6.50;99.90;;;;;;4897527;29;20232;-73
2024/01/02 03:18:43;;;;;;;0.90;0.60;;;6.50;99.90;;;;;;4895059;29;20229;-74
2024/01/02 03:21:10;;;;;;;0.90;0.70;;;6.50;99.90;;;;;;4899883;29;20523;-75
2024/01/02 03:23:37;;;;;;;1.10;0.80;;;6.50;99.90;;;;;;4902601;29;20638;-73
2024/01/02 03:26:04;;;;;;;1.10;0.70;;;6.50;99.90;;;;;;4901104;29;20507;-75
2024/01/02 03:28:30;;;;;;;1.00;0.70;;;6.50;99.90;;;;;;4894400;29;20487;-74
2024/01/02 03:30:56;;;;;;;1.10;0.60;;;6.40;99.90;;;;;;4896666;29;20450;-73
2024/01/02 03:33:22;;;;;;;1.27;0.70;;;6.40;99.90;;;;;;4893924;29;20504;-73
2024/01/02 03:35:47;;;;;;;0.80;0.70;;;6.50;99.90;;;;;;4900062;29;20691;-73
2024/01/02 03:38:14;;;;;;;0.80;0.60;;;6.50;99.90;;;;;;4892493;29;20789;-73
2024/01/02 03:40:39;;;;;;;1.33;0.80;;;6.50;99.90;;;;;;4898220;29;20221;-73
2024/01/02 03:43:05;;;;;;;1.33;0.60;;;6.50;99.90;;;;;;4899845;29;20439;-74
2024/01/02 03:45:31;;;;;;;1.10;0.70;;;6.40;99.90;;;;;;4876914;29;20227;-73
2024/01/02 03:47:57;;;;;;;0.80;0.50;;;6.40;99.90;;;;;;4899454;29;20464;-73
2024/01/02 03:50:23;;;;;;;0.80;0.60;;;6.40;99.90;;;;;;4896784;29;20703;-74
2024/01/02 03:52:49;;;;;;;0.70;0.50;;;6.40;99.90;;;;;;4896987;29;20255;-74
2024/01/02 03:55:15;;;;;;;1.63;0.70;;;6.40;99.90;;;;;;4900200;29;20212;-72
2024/01/02 03:57:42;;;;;;;0.70;0.50;;;6.40;99.90;;;;;;4897636;29;20427;-73
2024/01/02 04:00:08;;;;;;;1.40;0.50;;;6.40;99.90;;;;;;4892340;29;20579;-76
2024/01/02 04:02:34;;;;;;;0.77;0.47;;;6.50;99.90;;;;;;4875136;29;20443;-72
2024/01/02 04:04:59;;;;;;;1.13;0.50;;;6.50;99.90;;;;;;4895596;29;20416;-73
2024/01/02 04:07:25;;;;;;;0.80;0.50;;;6.50;99.90;;;;;;4893619;29;20218;-74
2024/01/02 04:09:51;;;;;;;1.37;0.50;;;6.50;99.90;;;;;;4898622;29;20207;-73
2024/01/02 04:12:17;;;;;;;1.20;0.60;;;6.50;99.90;;;;;;4884003;29;20213;-74
2024/01/02 04:14:42;;;;;;;1.53;0.40;;;6.50;99.90;;;;;;4898222;29;20895;-75
2024/01/02 04:17:08;;;;;;;0.80;0.43;;;6.50;99.90;;;;;;4897335;29;20286;-74
2024/01/02 04:19:33;;;;;;;1.93;0.53;;;6.50;99.90;;;;;;4902960;29;20202;-74
2024/01/02 04:22:00;;;;;;;0.80;0.50;;;6.50;99.90;;;;;;4900940;29;20282;-74
2024/01/02 04:24:26;;;;;;;0.80;0.70;;;6.50;99.90;;;;;;4888962;29;20425;-74
2024/01/02 04:26:52;;;;;;;0.80;0.50;;;6.60;99.90;;;;;;4888895;29;20480;-74
2024/01/02 04:29:18;;;;;;;0.80;0.50;;;6.60;99.90;;;;;;4890875;29;20199;-73
2024/01/02 04:31:44;;;;;;;1.43;0.60;;;6.60;99.90;;;;;;4889875;29;20464;-74
2024/01/02 04:34:09;;;;;;;0.80;0.50;;;6.60;99.90;;;;;;4877070;29;20727;-74
2024/01/02 04:36:35;;;;;;;0.80;0.50;;;6.60;99.90;;;;;;4892794;29;20207;-74
2024/01/02 04:39:01;;;;;;;1.73;0.57;;;6.60;99.90;;;;;;4891497;29;20187;-74
2024/01/02 04:41:27;;;;;;;1.57;0.57;;;6.60;99.90;;;;;;4899804;29;20258;-74
2024/01/02 04:43:52;;;;;;;0.90;0.50;;;6.70;99.90;;;;;;4894387;29;20890;-73
2024/01/02 04:46:18;;;;;;;0.97;0.57;;;6.70;99.90;;;;;;4893394;29;20215;-72
2024/01/02 04:48:43;;;;;;;1.63;0.60;;;6.70;99.90;;;;;;4890402;29;20801;-73
2024/01/02 04:51:09;;;;;;;0.90;0.50;;;6.70;99.90;;;;;;4891481;29;20187;-73
2024/01/02 04:53:34;;;;;;;0.70;0.50;;;6.80;99.90;;;;;;4892454;29;20180;-73
2024/01/02 04:56:00;;;;;;;0.80;0.57;;;6.80;99.90;;;;;;4893895;29;20270;-73
2024/01/02 04:58:26;;;;;;;1.30;0.60;;;6.80;99.90;;;;;;4894505;29;20269;-73
2024/01/02 05:00:51;;;;;;;1.00;0.67;;;6.90;99.90;;;;;;4897166;29;20225;-74
2024/01/02 05:03:17;;;;;;;0.80;0.53;;;6.90;99.90;;;;;;4896877;29;20254;-74
2024/01/02 05:05:42;;;;;;;0.90;0.60;;;6.90;99.90;;;;;;4895853;29;20212;-74
2024/01/02 05:08:08;;;;;;;0.80;0.70;;;7.00;99.90;;;;;;4898591;29;20227;-73
2024/01/02 05:10:34;;;;;;;0.90;0.60;;;7.00;99.90;;;;;;4878274;29;20273;-74
2024/01/02 05:12:59;;;;;;;1.83;0.80;;;7.00;99.90;;;;;;4894783;29;20179;-74
2024/01/02 05:15:25;;;;;;;1.67;0.80;;;7.10;99.90;;;;;;4892654;29;20523;-73
2024/01/02 05:17:51;;;;;;;0.77;0.60;;;7.10;99.90;;;;;;4898839;29;20283;-74
2024/01/02 05:20:17;;;;;;;0.90;0.70;;;7.20;99.90;;;;;;4896719;29;20207;-73
2024/01/02 05:22:42;;;;;;;0.90;0.70;;;7.20;99.90;;;;;;4892050;29;20425;-73
2024/01/02 05:25:09;;;;;;;1.00;0.67;;;7.30;99.90;;;;;;4893768;29;20211;-74
2024/01/02 05:27:35;;;;;;;1.10;0.70;;;7.30;99.90;;;;;;4890355;29;20476;-74
2024/01/02 05:30:01;;;;;;;1.70;0.80;;;7.30;99.90;;;;;;4870567;29;20451;-73
2024/01/02 05:32:27;;;;;;;1.20;0.87;;;7.40;99.90;;;;;;4894094;29;20206;-73
2024/01/02 05:34:53;;;;;;;1.40;0.77;;;7.40;99.90;;;;;;4901610;29;20534;-74
2024/01/02 05:37:18;;;;;;;0.80;0.60;;;7.40;99.90;;;;;;4889495;29;20192;-75
2024/01/02 05:39:44;;;;;;;1.03;0.60;;;7.50;99.90;;;;;;4889814;29;20436;-74
2024/01/02 05:42:09;;;;;;;1.93;0.80;;;7.50;99.90;;;;;;4890056;29;20179;-73
2024/01/02 05:44:35;;;;;;;1.33;0.70;;;7.50;99.90;;;;;;4897987;29;20188;-74
2024/01/02 05:47:01;;;;;;;1.10;0.70;;;7.50;99.90;;;;;;4895918;29;20214;-73
2024/01/02 05:49:26;;;;;;;0.77;0.50;;;7.60;99.90;;;;;;4887227;29;20596;-73
2024/01/02 05:51:52;;;;;;;0.97;0.60;;;7.60;99.90;;;;;;4896137;29;20188;-73
2024/01/02 05:54:17;;;;;;;0.90;0.60;;;7.70;99.90;;;;;;4892265;29;20184;-74
2024/01/02 05:56:43;;;;;;;1.13;0.70;;;7.70;99.90;;;;;;4895663;29;20207;-75
2024/01/02 05:59:09;;;;;;;0.80;0.60;;;7.80;99.90;;;;;;4886720;29;20196;-75
2024/01/02 06:01:35;;;;;;;1.37;0.80;;;7.80;99.90;;;;;;4897034;29;20700;-74
2024/01/02 06:04:01;;;;;;;0.90;0.70;;;7.90;99.90;;;;;;4897259;29;20195;-74
2024/01/02 06:06:26;;;;;;;1.67;0.90;;;7.90;99.90;;;;;;4861550;29;20464;-77
2024/01/02 06:08:52;;;;;;;1.13;0.70;;;8.00;99.90;;;;;;4890353;29;20217;-74
2024/01/02 06:11:17;;;;;;;1.20;0.70;;;8.00;99.90;;;;;;4892048;29;20285;-75
2024/01/02 06:13:43;;;;;;;1.53;0.70;;;8.10;99.90;;;;;;4897752;29;20624;-73
2024/01/02 06:16:10;;;;;;;1.63;1.00;;;8.10;99.90;;;;;;4889419;29;20231;-75
2024/01/02 06:18:36;;;;;;;1.73;0.80;;;8.20;99.90;;;;;;4889251;29;20183;-74
2024/01/02 06:21:02;;;;;;;1.80;0.80;;;8.20;99.90;;;;;;4900420;29;20428;-75
2024/01/02 06:23:28;;;;;;;1.30;0.83;;;8.30;99.90;;;;;;4902136;29;20902;-73
2024/01/02 06:25:54;;;;;;;1.10;0.70;;;8.30;99.90;;;;;;4900967;29;20447;-75
2024/01/02 06:28:19;;;;;;;1.23;0.70;;;8.40;99.90;;;;;;4897554;29;20213;-76
2024/01/02 06:30:45;;;;;;;1.43;0.90;;;8.40;99.90;;;;;;4892475;29;20423;-74
2024/01/02 06:33:11;;;;;;;1.10;0.80;;;8.50;99.90;;;;;;4899736;29;20222;-73
2024/01/02 06:35:36;;;;;;;1.10;0.70;;;8.50;99.90;;;;;;4881537;29;20224;-75
2024/01/02 06:38:02;;;;;;;1.30;0.90;;;8.60;99.90;;;;;;4900769;29;20204;-75
2024/01/02 06:40:27;;;;;;;0.97;0.63;;;8.60;99.90;;;;;;4891696;29;20554;-73
2024/01/02 06:42:53;;;;;;;1.27;0.60;;;8.70;99.90;;;;;;4895829;29;20431;-75
2024/01/02 06:45:19;;;;;;;1.10;0.50;;;8.80;99.90;;;;;;4892621;29;20251;-74
2024/01/02 06:47:45;;;;;;;0.80;0.60;;;8.80;99.90;;;;;;4896452;29;20203;-72
2024/01/02 06:50:10;;;;;;;0.77;0.50;;;8.80;99.90;;;;;;4896588;29;20400;-74
2024/01/02 06:52:38;;;;;;;0.80;0.60;;;8.90;99.90;;;;;;4897377;29;20195;-75
2024/01/02 06:55:04;;;;;;;0.77;0.50;;;8.90;99.90;;;;;;4895265;29;20274;-75
2024/01/02 06:57:29;;;;;;;0.83;0.60;;;9.00;99.90;;;;;;4904750;29;20851;-75
2024/01/02 06:59:55;;;;;;;1.63;0.60;;;9.00;99.90;;;;;;4899411;29;20427;-76
2024/01/02 07:02:22;;;;;;;0.93;0.60;;;9.10;99.90;;;;;;4896391;29;20238;-74
2024/01/02 07:04:47;;;;;;;0.77;0.50;;;9.10;99.90;;;;;;4901183;29;20648;-75
2024/01/02 07:07:13;;;;;;;0.80;0.53;;;9.20;99.90;;;;;;4898619;29;20439;-75
2024/01/02 07:09:38;;;;;;;0.90;0.60;;;9.20;99.90;;;;;;4894599;29;20627;-74
2024/01/02 07:12:04;;;;;;;0.90;0.60;;;9.20;99.90;;;;;;4878415;29;20183;-74
2024/01/02 07:14:30;;;;;;;1.00;0.67;;;9.30;99.90;;;;;;4904372;29;20728;-74
2024/01/02 07:16:55;;;;;;;1.00;0.60;;;9.30;99.90;;;;;;4899174;29;20440;-75
2024/01/02 07:19:21;;;;;;;1.23;0.60;;;9.40;99.90;;;;;;4902253;29;20191;-73
2024/01/02 07:21:48;;;;;;;1.67;0.70;;;9.40;99.90;;;;;;4903209;29;20211;-75
2024/01/02 07:24:16;;;;;;;1.00;0.80;;;9.50;99.90;;;;;;4898954;29;20226;-75
2024/01/02 07:26:41;;;;;;;1.63;0.60;;;9.50;99.90;;;;;;4898095;29;20462;-74
2024/01/02 07:29:07;;;;;;;1.00;0.70;;;9.60;99.90;;;;;;4866950;29;20474;-73
2024/01/02 07:31:34;;;;;;;0.83;0.50;;;9.60;99.90;;;;;;4901424;29;20192;-75
2024/01/02 07:33:59;;;;;;;1.03;0.53;;;9.60;99.90;;;;;;4903622;29;20251;-73
2024/01/02 07:36:25;;;;;;;2.20;0.50;;;9.70;99.90;;;;;;4896384;29;20467;-75
2024/01/02 07:38:51;;;;;;;0.60;0.50;;;9.70;99.90;;;;;;4895077;29;20187;-73
2024/01/02 07:41:16;;;;;;;0.70;0.50;;;9.70;99.90;;;;;;4904312;29;20183;-76
2024/01/02 07:43:42;;;;;;;0.90;0.50;;;9.80;99.90;;;;;;4905737;29;20246;-75
2024/01/02 07:46:07;;;;;;;0.83;0.60;;;9.80;99.90;;;;;;4898731;29;20211;-74
2024/01/02 07:48:33;;;;;;;1.63;0.70;;;9.80;99.90;;;;;;4894637;29;20219;-75
2024/01/02 07:50:59;;;;;;;1.00;0.70;;;9.80;99.90;;;;;;4886901;29;20191;-77
2024/01/02 07:53:24;;;;;;;0.83;0.60;;;9.80;99.90;;;;;;4901600;29;20180;-76
2024/01/02 07:55:50;;;;;;;0.90;0.67;;;9.90;99.90;;;;;;4885670;29;20218;-74
2024/01/02 07:58:15;;;;;;;0.87;0.53;;;9.90;99.90;;;;;;4894023;29;20469;-75
2024/01/02 08:00:41;;;;;;;1.20;0.60;;;9.90;99.90;;;;;;4897136;29;20203;-76
2024/01/02 08:03:06;;;;;;;0.90;0.63;;;10.00;99.90;;;;;;4896947;29;20231;-75
2024/01/02 08:05:34;;;;;;;1.00;0.60;;;10.00;99.90;;;;;;4891506;29;20231;-75
2024/01/02 08:08:00;;;;;;;0.97;0.70;;;10.00;99.90;;;;;;4888751;29;20230;-74
2024/01/02 08:10:26;;;;;;;1.20;0.87;;;10.00;99.90;;;;;;4875871;29;20444;-74
2024/01/02 08:12:52;;;;;;;0.90;0.50;;;10.00;99.90;;;;;;4897910;29;20177;-77
2024/01/02 08:15:17;;;;;;;0.90;0.50;;;10.00;99.90;;;;;;4887890;29;20699;-76
2024/01/02 08:17:43;;;;;;;1.13;0.50;;;10.00;99.90;;;;;;4908590;29;20189;-75
2024/01/02 08:20:10;;;;;;;0.73;0.50;;;10.10;99.90;;;;;;4886415;29;20183;-78
2024/01/02 08:22:35;;;;;;;0.83;0.63;;;10.10;99.90;;;;;;4888779;29;20210;-75
2024/01/02 08:25:01;;;;;;;0.73;0.50;;;10.10;99.90;;;;;;4901841;29;20551;-74
2024/01/02 08:27:27;;;;;;;1.40;0.53;;;10.10;99.90;;;;;;4899304;29;20573;-76
2024/01/02 08:29:54;;;;;;;0.70;0.50;;;10.10;99.90;;;;;;4901522;29;20191;-75
2024/01/02 08:32:20;;;;;;;1.03;0.60;;;10.10;99.90;;;;;;4899446;29;20212;-75
2024/01/02 08:34:46;;;;;;;1.50;0.80;;;10.20;99.90;;;;;;4867751;29;20736;-76
2024/01/02 08:37:11;;;;;;;1.20;0.60;;;10.20;99.90;;;;;;4878761;29;20452;-77
2024/01/02 08:39:37;;;;;;;1.10;0.87;;;10.20;99.90;;;;;;4899106;29;20607;-75
2024/01/02 08:42:02;;;;;;;1.00;0.67;;;10.20;99.90;;;;;;4899163;29;20201;-75
2024/01/02 08:44:28;;;;;;;1.90;0.73;;;10.20;99.90;;;;;;4901895;29;20182;-75
2024/01/02 08:46:54;;;;;;;1.30;0.70;;;10.20;99.90;;;;;;4892915;29;20263;-77
2024/01/02 08:49:20;;;;;;;0.90;0.60;;;10.20;99.90;;;;;;4900116;29;20503;-77
2024/01/02 08:51:45;;;;;;;1.10;0.70;;;10.20;99.90;;;;;;4896375;29;20206;-78
2024/01/02 08:54:11;;;;;;;0.90;0.70;;;10.20;99.90;;;;;;4905608;29;20934;-77
2024/01/02 08:56:36;;;;;;;1.10;0.70;;;10.20;99.90;;;;;;4907339;29;20215;-77
2024/01/02 08:59:02;;;;;;;1.63;0.80;;;10.20;99.90;;;;;;4900090;29;20568;-76
2024/01/02 09:01:28;;;;;;;0.73;0.50;;;10.30;99.90;;;;;;4890780;29;20206;-75
2024/01/02 09:03:54;;;;;;;0.90;0.50;;;10.30;99.90;;;;;;4882784;29;20187;-76
2024/01/02 09:06:19;;;;;;;1.17;0.77;;;10.30;99.90;;;;;;4886583;29;20736;-76
2024/01/02 09:08:46;;;;;;;1.30;0.70;;;10.30;99.90;;;;;;4898787;29;20215;-77
2024/01/02 09:11:12;;;;;;;1.20;0.70;;;10.30;99.90;;;;;;4906688;29;20199;-76
2024/01/02 09:13:38;;;;;;;1.00;0.63;;;10.30;99.90;;;;;;4896296;29;20460;-76
2024/01/02 09:16:04;;;;;;;1.30;0.80;;;10.30;99.90;;;;;;4895571;29;20471;-75
2024/01/02 09:18:30;;;;;;;0.90;0.60;;;10.30;99.90;;;;;;4895903;29;20433;-75
2024/01/02 09:20:57;;;;;;;1.83;0.70;;;10.30;99.90;;;;;;4880904;29;20436;-75
2024/01/02 09:23:22;;;;;;;1.10;0.70;;;10.30;99.90;;;;;;4902380;29;20268;-77
2024/01/02 09:25:50;;;;;;;0.87;0.60;;;10.30;99.90;;;;;;4900081;29;20792;-80
2024/01/02 09:28:19;;;;;;;1.30;0.90;;;10.30;99.90;;;;;;4903759;29;20211;-75
2024/01/02 09:30:46;;;;;;;1.70;1.00;;;10.30;99.90;;;;;;4889974;29;20479;-76
2024/01/02 09:33:12;;;;;;;1.03;0.70;;;10.30;99.90;;;;;;4897916;29;20508;-74
2024/01/02 09:35:38;;;;;;;1.30;1.00;;;10.30;99.90;;;;;;4887769;29;20507;-78
2024/01/02 09:38:04;;;;;;;1.23;0.83;;;10.30;99.90;;;;;;4898301;29;20742;-74
2024/01/02 09:40:36;;;;;;;1.77;1.13;;;10.30;99.90;;;;;;4903863;29;20434;-74
2024/01/02 09:43:07;;;;;;;1.37;0.80;;;10.30;99.90;;;;;;4909153;29;20534;-75
2024/01/02 09:45:49;;;;;;;2.13;1.60;;;10.40;99.90;;;;;;4897228;29;20452;-76
2024/01/02 09:48:53;;;;;;;1.13;0.90;;;10.40;99.90;;;;;;4899621;29;20467;-75
2024/01/02 09:51:25;;;;;;;1.70;1.07;;;10.40;99.90;;;;;;4900469;29;20419;-77
2024/01/02 09:54:19;;;;;;;1.30;0.90;;;10.40;99.90;;;;;;4896618;29;20503;-77
2024/01/02 09:56:58;;;;;;;1.10;0.80;;;10.40;99.90;;;;;;4883746;29;20472;-79
2024/01/02 09:59:42;;;;;;;1.53;1.10;;;10.40;99.90;;;;;;4910413;29;20427;-76
2024/01/02 10:02:34;;;;;;;0.97;0.63;;;10.40;99.90;;;;;;4880185;29;20685;-79
2024/01/02 10:05:34;;;;;;;1.10;0.73;;;10.40;99.90;;;;;;4907761;29;20422;-77
2024/01/02 10:08:27;;;;;;;0.90;0.60;;;10.30;99.90;;;;;;4899801;29;20537;-77
2024/01/02 10:11:07;;;;;;;1.00;0.60;;;10.40;99.90;;;;;;4896091;29;20504;-78
2024/01/02 10:13:44;;;;;;;1.50;1.10;;;10.40;99.90;;;;;;4904830;29;20439;-77
2024/01/02 10:16:25;;;;;;;1.30;0.77;;;10.50;99.90;;;;;;4893563;29;20459;-76
2024/01/02 10:19:00;;;;;;;1.40;1.20;;;10.50;99.90;;;;;;4863938;29;20527;-79
2024/01/02 10:21:39;;;;;;;1.47;0.87;;;10.50;99.90;;;;;;4867736;29;20509;-77
2024/01/02 10:24:27;;;;;;;1.47;0.80;;;10.50;99.90;;;;;;4853753;29;20448;-78
2024/01/02 10:27:06;;;;;;;1.10;0.70;;;10.50;99.90;;;;;;4865385;29;20474;-77
2024/01/02 10:29:46;;;;;;;1.17;0.80;;;10.50;99.90;;;;;;4853667;29;20498;-77
2024/01/02 10:32:18;;;;;;;1.30;0.70;;;10.40;99.90;;;;;;4860507;29;20439;-77
2024/01/02 10:35:08;;;;;;;1.30;1.00;;;10.40;99.90;;;;;;4873562;29;20436;-77
2024/01/02 10:37:39;;;;;;;1.30;0.80;;;10.50;99.90;;;;;;4857193;29;20564;-77
2024/01/02 10:40:16;;;;;;;1.20;0.70;;;10.50;99.90;;;;;;4875076;29;20445;-76
2024/01/02 10:43:06;;;;;;;2.00;1.00;;;10.50;99.90;;;;;;4861649;29;20432;-78
2024/01/02 10:46:03;;;;;;;1.57;0.90;;;10.50;99.90;;;;;;4859645;29;20456;-77
2024/01/02 10:48:44;;;;;;;4.00;1.00;;;10.50;99.90;;;;;;4865803;29;20487;-78
2024/01/02 10:51:22;;;;;;;2.07;1.00;;;10.60;99.90;;;;;;4905847;29;20436;-75
2024/01/02 10:53:56;;;;;;;1.80;0.80;;;10.80;99.90;;;;;;4898777;29;20406;-76
2024/01/02 10:56:41;;;;;;;2.60;1.67;;;10.90;99.90;;;;;;4910783;29;20466;-78
2024/01/02 10:59:21;;;;;;;1.00;0.73;;;11.00;99.90;;;;;;4901512;29;20572;-79
2024/01/02 11:01:48;;;;;;;1.13;0.67;;;11.10;99.90;;;;;;4893177;29;20431;-77
2024/01/02 11:04:34;;;;;;;1.10;0.83;;;11.10;99.90;;;;;;4884861;29;20436;-77
2024/01/02 11:07:06;;;;;;;1.00;0.60;;;11.00;99.90;;;;;;4899411;29;20458;-77
2024/01/02 11:10:10;;;;;;;1.30;0.60;;;10.90;99.90;;;;;;4858300;29;20475;-76
2024/01/02 11:12:57;;;;;;;1.13;0.83;;;10.70;99.90;;;;;;4856687;29;20433;-80
2024/01/02 11:15:25;;;;;;;2.60;0.80;;;10.60;99.90;;;;;;4881907;29;20756;-74
2024/01/02 11:17:53;;;;;;;0.90;0.60;;;10.60;99.90;;;;;;4885487;29;20461;-76
2024/01/02 11:20:21;;;;;;;1.37;0.80;;;10.70;99.90;;;;;;4901071;29;20450;-77
2024/01/02 11:22:53;;;;;;;1.50;0.97;;;10.70;99.90;;;;;;4903007;29;20750;-75
2024/01/02 11:25:23;;;;;;;1.43;0.93;;;10.60;99.90;;;;;;4895095;29;20504;-78
2024/01/02 11:27:51;;;;;;;1.70;0.90;;;10.60;99.90;;;;;;4900308;29;20514;-76
2024/01/02 11:30:18;;;;;;;1.70;1.13;;;10.60;99.90;;;;;;4889342;29;20440;-76
2024/01/02 11:33:10;;;;;;;1.00;0.60;;;10.60;99.90;;;;;;4892598;29;20431;-77
2024/01/02 11:36:00;;;;;;;2.00;1.07;;;10.60;99.90;;;;;;4895714;29;20481;-75
2024/01/02 11:38:31;;;;;;;1.00;0.80;;;10.60;99.90;;;;;;4904233;29;20431;-75
2024/01/02 11:41:22;;;;;;;1.20;0.80;;;10.50;99.90;;;;;;4908529;29;20431;-77
2024/01/02 11:43:53;;;;;;;1.10;0.70;;;10.50;99.90;;;;;;4904082;29;20416;-77
2024/01/02 11:46:23;;;;;;;1.20;0.90;;;10.40;99.90;;;;;;4902327;29;20443;-77
2024/01/02 11:49:09;;;;;;;1.30;0.80;;;10.40;99.90;;;;;;4900079;29;20455;-75
2024/01/02 11:51:38;;;;;;;1.00;0.70;;;10.30;99.90;;;;;;4895000;29;20419;-76
2024/01/02 11:54:24;;;;;;;1.43;0.80;;;10.30;99.90;;;;;;4905102;29;20433;-78
2024/01/02 11:56:51;;;;;;;1.10;0.70;;;10.20;99.90;;;;;;4909977;29;20449;-78
2024/01/02 11:59:54;;;;;;;1.30;0.67;;;10.10;99.90;;;;;;4885226;29;20638;-79
2024/01/02 12:03:02;;;;;;;1.43;0.70;;;10.10;99.90;;;;;;4901709;29;20778;-81
2024/01/02 12:05:30;;;;;;;2.30;1.00;;;10.00;99.90;;;;;;4858355;29;20482;-77
2024/01/02 12:07:56;;;;;;;2.50;1.67;;;9.90;99.90;;;;;;4832039;29;20730;-77
2024/01/02 12:10:29;;;;;;;3.03;1.30;;;9.90;99.90;;;;;;4859896;29;20881;-77
2024/01/02 12:13:44;;;;;;;1.87;1.33;;;9.80;99.90;;;;;;4848542;29;20430;-79
2024/01/02 12:16:13;;;;;;;2.43;1.20;;;9.80;99.90;;;;;;4858061;29;20497;-79
2024/01/02 12:18:44;;;;;;;2.20;1.00;;;9.70;99.90;;;;;;4856683;29;20455;-77
2024/01/02 12:21:15;;;;;;;1.30;0.93;;;9.60;99.90;;;;;;4849340;29;20438;-78
2024/01/02 12:23:41;;;;;;;1.10;0.70;;;9.60;99.90;;;;;;4841970;29;20474;-79
2024/01/02 12:26:13;;;;;;;1.20;0.70;;;9.60;99.90;;;;;;4867385;29;20450;-76
2024/01/02 12:28:41;;;;;;;0.80;0.60;;;9.60;99.90;;;;;;4835745;29;20585;-76
2024/01/02 12:31:37;;;;;;;1.20;0.90;;;9.60;99.90;;;;;;4864456;29;20414;-79
2024/01/02 12:34:40;;;;;;;1.50;0.93;;;9.60;99.90;;;;;;4858858;29;20433;-80
2024/01/02 12:37:14;;;;;;;1.07;0.60;;;9.50;99.90;;;;;;4831979;29;20409;-78
2024/01/02 12:39:42;;;;;;;1.10;0.70;;;9.50;99.90;;;;;;4847967;29;20447;-77
2024/01/02 12:42:13;;;;;;;1.30;0.80;;;9.50;99.90;;;;;;4903644;29;20440;-78
2024/01/02 12:44:43;;;;;;;1.10;0.80;;;9.50;99.90;;;;;;4890629;29;20426;-78
2024/01/02 12:47:10;;;;;;;1.23;0.70;;;9.50;99.90;;;;;;4904973;29;20424;-78
2024/01/02 12:50:05;;;;;;;1.43;0.80;;;9.50;99.90;;;;;;4892187;29;20454;-76
2024/01/02 12:52:39;;;;;;;1.10;0.70;;;9.50;99.90;;;;;;4880613;29;20440;-79
2024/01/02 12:55:08;;;;;;;0.93;0.70;;;9.50;99.90;;;;;;4883539;29;20511;-77
2024/01/02 12:57:35;;;;;;;1.00;0.70;;;9.50;99.90;;;;;;4894940;29;20438;-78
2024/01/02 13:00:07;;;;;;;0.90;0.50;;;9.50;99.90;;;;;;4885491;29;20404;-78
2024/01/02 13:02:36;;;;;;;1.50;0.77;;;9.50;99.90;;;;;;4888798;29;20463;-77